createdAt,value
2017-10-23T00:00:02.964Z,8.30
2017-10-23T00:02:30.475Z,8.20
2017-10-23T00:04:57.970Z,8.20
2017-10-23T00:07:25.483Z,8.20
2017-10-23T00:09:52.974Z,8.20
2017-10-23T00:12:20.481Z,8.10
2017-10-23T00:14:47.970Z,8.10
2017-10-23T00:17:15.475Z,8.10
2017-10-23T00:19:43.730Z,8.10
2017-10-23T00:22:11.238Z,8.10
2017-10-23T00:24:38.725Z,8.10
2017-10-23T00:27:06.234Z,8.10
2017-10-23T00:29:33.719Z,8.10
2017-10-23T00:32:01.995Z,8.10
2017-10-23T00:34:30.253Z,8.10
2017-10-23T00:36:57.771Z,8.10
2017-10-23T00:39:25.266Z,8.20
2017-10-23T00:41:52.774Z,8.20
2017-10-23T00:44:20.266Z,8.10
2017-10-23T00:46:47.987Z,8.10
2017-10-23T00:49:16.243Z,8.10
2017-10-23T00:51:43.750Z,8.10
2017-10-23T00:54:11.244Z,8.10
2017-10-23T00:56:38.755Z,8.10
2017-10-23T00:59:06.246Z,8.10
2017-10-23T01:01:33.758Z,8.10
2017-10-23T01:04:02.011Z,8.10
2017-10-23T01:06:29.532Z,8.10
2017-10-23T01:08:57.030Z,8.10
2017-10-23T01:11:25.310Z,8.10
2017-10-23T01:13:53.570Z,8.10
2017-10-23T01:16:21.079Z,8.10
2017-10-23T01:18:48.571Z,8.10
2017-10-23T01:21:16.083Z,8.10
2017-10-23T01:23:43.575Z,8.00
2017-10-23T01:26:11.106Z,8.00
2017-10-23T01:28:38.594Z,8.00
2017-10-23T01:31:06.102Z,8.00
2017-10-23T01:33:34.354Z,8.00
2017-10-23T01:36:01.867Z,8.00
2017-10-23T01:38:29.358Z,8.10
2017-10-23T01:40:56.866Z,8.00
2017-10-23T01:43:24.358Z,8.10
2017-10-23T01:45:51.870Z,8.10
2017-10-23T01:48:20.123Z,8.10
2017-10-23T01:50:47.634Z,8.10
2017-10-23T01:53:15.126Z,8.20
2017-10-23T01:55:42.623Z,8.20
2017-10-23T01:58:10.894Z,8.20
2017-10-23T02:00:39.151Z,8.20
2017-10-23T02:03:06.663Z,8.20
2017-10-23T02:05:34.154Z,8.20
2017-10-23T02:08:01.663Z,8.30
2017-10-23T02:10:29.161Z,8.20
2017-10-23T02:12:56.677Z,8.30
2017-10-23T02:15:24.170Z,8.30
2017-10-23T02:17:51.662Z,8.30
2017-10-23T02:20:19.169Z,8.20
2017-10-23T02:22:46.649Z,8.20
2017-10-23T02:25:14.154Z,8.20
2017-10-23T02:27:41.638Z,8.30
2017-10-23T02:30:09.158Z,8.30
2017-10-23T02:32:36.642Z,8.30
2017-10-23T02:35:04.917Z,8.30
2017-10-23T02:37:33.182Z,8.30
2017-10-23T02:40:00.694Z,8.30
2017-10-23T02:42:28.183Z,8.30
2017-10-23T02:44:55.674Z,8.30
2017-10-23T02:47:23.947Z,8.40
2017-10-23T02:49:51.441Z,8.40
2017-10-23T02:52:18.950Z,8.40
2017-10-23T02:54:47.197Z,8.40
2017-10-23T02:57:14.699Z,8.40
2017-10-23T02:59:42.183Z,8.40
2017-10-23T03:02:09.694Z,8.40
2017-10-23T03:04:37.942Z,8.40
2017-10-23T03:07:05.450Z,8.40
2017-10-23T03:09:32.946Z,8.40
2017-10-23T03:12:00.433Z,8.40
2017-10-23T03:14:28.711Z,8.40
2017-10-23T03:16:56.194Z,8.40
2017-10-23T03:19:23.702Z,8.40
2017-10-23T03:21:51.190Z,8.40
2017-10-23T03:24:18.707Z,8.40
2017-10-23T03:26:46.963Z,8.30
2017-10-23T03:29:14.466Z,8.40
2017-10-23T03:31:41.958Z,8.30
2017-10-23T03:34:09.466Z,8.30
2017-10-23T03:36:36.949Z,8.30
2017-10-23T03:39:04.434Z,8.30
2017-10-23T03:41:31.946Z,8.40
2017-10-23T03:43:59.434Z,8.40
2017-10-23T03:46:26.953Z,8.40
2017-10-23T03:48:54.437Z,8.40
2017-10-23T03:51:21.947Z,8.30
2017-10-23T03:53:50.202Z,8.30
2017-10-23T03:56:17.686Z,8.30
2017-10-23T03:58:45.966Z,8.20
2017-10-23T04:01:14.214Z,8.20
2017-10-23T04:03:41.717Z,8.20
2017-10-23T04:06:09.203Z,8.20
2017-10-23T04:08:36.710Z,8.10
2017-10-23T04:11:04.967Z,8.10
2017-10-23T04:13:32.454Z,8.10
2017-10-23T04:15:59.968Z,8.20
2017-10-23T04:18:27.466Z,8.10
2017-10-23T04:20:55.010Z,8.10
2017-10-23T04:23:22.498Z,8.20
2017-10-23T04:25:50.016Z,8.20
2017-10-23T04:28:17.511Z,8.20
2017-10-23T04:30:45.022Z,8.20
2017-10-23T04:33:12.506Z,8.20
2017-10-23T04:35:40.772Z,8.20
2017-10-23T04:38:08.282Z,8.20
2017-10-23T04:40:35.774Z,8.20
2017-10-23T04:43:03.278Z,8.20
2017-10-23T04:45:31.535Z,8.20
2017-10-23T04:47:59.046Z,8.10
2017-10-23T04:50:26.534Z,8.20
2017-10-23T04:52:54.018Z,8.20
2017-10-23T04:55:21.522Z,8.20
2017-10-23T04:57:49.782Z,8.20
2017-10-23T05:00:17.289Z,8.20
2017-10-23T05:02:44.770Z,8.20
2017-10-23T05:05:12.278Z,8.20
2017-10-23T05:07:40.543Z,8.20
2017-10-23T05:10:08.938Z,8.10
2017-10-23T05:12:36.450Z,8.20
2017-10-23T05:15:03.938Z,8.20
2017-10-23T05:17:31.462Z,8.20
2017-10-23T05:19:58.946Z,8.10
2017-10-23T05:22:26.462Z,8.20
2017-10-23T05:24:53.950Z,8.20
2017-10-23T05:27:22.202Z,8.20
2017-10-23T05:29:49.749Z,8.20
2017-10-23T05:32:17.238Z,8.20
2017-10-23T05:34:44.796Z,8.30
2017-10-23T05:37:12.286Z,8.30
2017-10-23T05:39:40.566Z,8.30
2017-10-23T05:42:08.059Z,8.30
2017-10-23T05:44:35.546Z,8.30
2017-10-23T05:47:03.065Z,8.30
2017-10-23T05:49:30.555Z,8.30
2017-10-23T05:51:58.075Z,8.40
2017-10-23T05:54:25.583Z,8.40
2017-10-23T05:56:53.089Z,8.40
2017-10-23T05:59:20.583Z,8.40
2017-10-23T06:01:48.866Z,8.40
2017-10-23T06:04:16.392Z,8.40
2017-10-23T06:06:43.897Z,8.40
2017-10-23T06:09:11.378Z,8.40
2017-10-23T06:11:38.882Z,8.40
2017-10-23T06:14:07.134Z,8.40
2017-10-23T06:16:34.635Z,8.40
2017-10-23T06:19:02.146Z,8.40
2017-10-23T06:21:29.649Z,8.40
2017-10-23T06:23:57.167Z,8.40
2017-10-23T06:26:24.654Z,8.40
2017-10-23T06:28:52.166Z,8.40
2017-10-23T06:31:19.646Z,8.50
2017-10-23T06:33:47.904Z,8.50
2017-10-23T06:36:15.482Z,8.50
2017-10-23T06:38:43.746Z,8.50
2017-10-23T06:41:11.278Z,8.50
2017-10-23T06:43:38.775Z,8.60
2017-10-23T06:46:06.262Z,8.60
2017-10-23T06:48:33.770Z,8.60
2017-10-23T06:51:01.307Z,8.70
2017-10-23T06:53:29.586Z,8.70
2017-10-23T06:55:57.843Z,8.70
2017-10-23T06:58:26.122Z,8.70
2017-10-23T07:00:54.374Z,8.80
2017-10-23T07:03:21.882Z,8.70
2017-10-23T07:05:50.129Z,8.70
2017-10-23T07:08:17.638Z,8.70
2017-10-23T07:10:45.137Z,8.70
2017-10-23T07:13:13.414Z,8.80
2017-10-23T07:15:40.903Z,8.80
2017-10-23T07:18:09.178Z,8.90
2017-10-23T07:20:36.658Z,8.80
2017-10-23T07:23:04.154Z,8.90
2017-10-23T07:25:31.675Z,9.00
2017-10-23T07:27:59.174Z,9.00
2017-10-23T07:30:26.679Z,9.10
2017-10-23T07:32:54.162Z,9.20
2017-10-23T07:35:21.673Z,9.20
2017-10-23T07:37:49.934Z,9.30
2017-10-23T07:40:17.441Z,9.30
2017-10-23T07:42:44.927Z,9.30
2017-10-23T07:45:12.430Z,9.30
2017-10-23T07:47:39.917Z,9.30
2017-10-23T07:50:07.432Z,9.30
2017-10-23T07:52:34.921Z,9.30
2017-10-23T07:55:02.406Z,9.40
2017-10-23T07:57:29.950Z,9.40
2017-10-23T07:59:58.206Z,9.50
2017-10-23T08:02:25.714Z,9.50
2017-10-23T08:04:53.206Z,9.60
2017-10-23T08:07:20.694Z,9.60
2017-10-23T08:09:48.971Z,9.50
2017-10-23T08:12:17.237Z,9.60
2017-10-23T08:14:44.746Z,9.50
2017-10-23T08:17:12.234Z,9.50
2017-10-23T08:19:39.741Z,9.60
2017-10-23T08:22:07.231Z,9.60
2017-10-23T08:24:34.728Z,9.60
2017-10-23T08:27:02.238Z,9.60
2017-10-23T08:29:29.727Z,9.60
2017-10-23T08:31:57.243Z,9.60
2017-10-23T08:34:24.758Z,9.70
2017-10-23T08:36:52.269Z,9.70
2017-10-23T08:39:19.750Z,9.70
2017-10-23T08:41:47.230Z,9.70
2017-10-23T08:44:14.743Z,9.70
2017-10-23T08:46:42.242Z,9.70
2017-10-23T08:49:09.754Z,9.70
2017-10-23T08:51:37.237Z,9.80
2017-10-23T08:54:04.754Z,9.80
2017-10-23T08:56:32.246Z,9.90
2017-10-23T08:58:59.754Z,10.00
2017-10-23T09:01:27.247Z,10.00
2017-10-23T09:03:55.506Z,10.40
2017-10-23T09:06:23.020Z,10.30
2017-10-23T09:08:50.509Z,10.70
2017-10-23T09:11:18.023Z,11.00
2017-10-23T09:13:45.514Z,11.90
2017-10-23T09:16:13.033Z,12.30
2017-10-23T09:18:40.526Z,13.30
2017-10-23T09:21:08.043Z,14.30
2017-10-23T09:23:35.542Z,14.20
2017-10-23T09:26:03.030Z,13.60
2017-10-23T09:28:30.542Z,13.10
2017-10-23T09:30:58.039Z,12.80
2017-10-23T09:33:25.551Z,12.90
2017-10-23T09:35:53.045Z,14.60
2017-10-23T09:38:20.559Z,15.50
2017-10-23T09:40:48.050Z,16.50
2017-10-23T09:43:15.546Z,16.50
2017-10-23T09:45:43.840Z,14.90
2017-10-23T09:48:11.347Z,14.90
2017-10-23T09:50:38.853Z,14.70
2017-10-23T09:53:06.341Z,14.50
2017-10-23T09:55:34.620Z,13.90
2017-10-23T09:58:02.879Z,13.60
2017-10-23T10:00:30.371Z,13.50
2017-10-23T10:02:57.883Z,13.20
2017-10-23T10:05:26.143Z,14.80
2017-10-23T10:07:53.654Z,14.80
2017-10-23T10:10:21.146Z,15.10
2017-10-23T10:12:48.653Z,15.00
2017-10-23T10:15:16.910Z,14.60
2017-10-23T10:17:45.186Z,15.20
2017-10-23T10:20:13.449Z,15.00
2017-10-23T10:22:41.771Z,14.90
2017-10-23T10:25:09.287Z,14.90
2017-10-23T10:27:37.538Z,14.40
2017-10-23T10:30:05.055Z,14.40
2017-10-23T10:32:32.547Z,13.90
2017-10-23T10:35:00.054Z,13.70
2017-10-23T10:37:27.546Z,13.40
2017-10-23T10:39:55.057Z,13.20
2017-10-23T10:42:23.314Z,12.90
2017-10-23T10:44:50.806Z,12.90
2017-10-23T10:47:18.318Z,12.90
2017-10-23T10:49:45.801Z,12.80
2017-10-23T10:52:13.305Z,12.60
2017-10-23T10:54:41.554Z,12.40
2017-10-23T10:57:09.062Z,12.40
2017-10-23T10:59:36.555Z,12.30
2017-10-23T11:02:04.048Z,12.20
2017-10-23T11:04:32.326Z,12.10
2017-10-23T11:06:59.819Z,12.10
2017-10-23T11:09:27.334Z,12.20
2017-10-23T11:11:54.825Z,12.20
2017-10-23T11:14:22.342Z,12.30
2017-10-23T11:16:50.598Z,12.30
2017-10-23T11:19:18.107Z,12.30
2017-10-23T11:21:45.617Z,12.30
2017-10-23T11:24:14.619Z,12.00
2017-10-23T11:26:42.906Z,12.00
2017-10-23T11:29:11.164Z,12.00
2017-10-23T11:31:39.446Z,11.90
2017-10-23T11:34:07.700Z,11.90
2017-10-23T11:36:35.218Z,11.90
2017-10-23T11:39:02.705Z,12.00
2017-10-23T11:41:30.215Z,12.00
2017-10-23T11:43:57.702Z,12.00
2017-10-23T11:46:25.194Z,12.00
2017-10-23T11:48:52.705Z,12.10
2017-10-23T11:51:20.193Z,12.20
2017-10-23T11:53:47.701Z,12.60
2017-10-23T11:56:15.194Z,12.80
2017-10-23T11:58:42.705Z,13.10
2017-10-23T12:01:10.189Z,13.50
2017-10-23T12:03:38.442Z,14.10
2017-10-23T12:06:05.955Z,14.10
2017-10-23T12:08:33.445Z,13.90
2017-10-23T12:11:00.954Z,13.70
2017-10-23T12:13:28.450Z,13.40
2017-10-23T12:15:55.962Z,13.30
2017-10-23T12:18:24.218Z,12.80
2017-10-23T12:20:51.733Z,12.80
2017-10-23T12:23:19.990Z,12.70
2017-10-23T12:25:47.478Z,12.70
2017-10-23T12:28:14.990Z,12.70
2017-10-23T12:30:42.481Z,12.60
2017-10-23T12:33:10.758Z,12.60
2017-10-23T12:35:39.014Z,12.60
2017-10-23T12:38:06.517Z,12.60
2017-10-23T12:40:34.006Z,12.50
2017-10-23T12:43:01.526Z,12.30
2017-10-23T12:45:29.017Z,12.20
2017-10-23T12:47:56.518Z,12.20
2017-10-23T12:50:24.030Z,12.20
2017-10-23T12:52:51.515Z,12.30
2017-10-23T12:55:19.033Z,12.30
2017-10-23T12:57:46.537Z,12.30
2017-10-23T13:00:14.063Z,12.40
2017-10-23T13:02:42.336Z,12.30
2017-10-23T13:05:09.831Z,12.30
2017-10-23T13:07:37.345Z,12.30
2017-10-23T13:10:04.834Z,12.30
2017-10-23T13:12:32.350Z,12.30
2017-10-23T13:15:00.610Z,12.20
2017-10-23T13:17:28.901Z,12.10
2017-10-23T13:19:57.153Z,12.10
2017-10-23T13:22:24.641Z,12.10
2017-10-23T13:24:52.923Z,12.00
2017-10-23T13:27:21.182Z,12.10
2017-10-23T13:29:48.690Z,12.10
2017-10-23T13:32:16.187Z,12.20
2017-10-23T13:34:44.470Z,12.10
2017-10-23T13:37:12.726Z,12.10
2017-10-23T13:39:40.214Z,12.10
2017-10-23T13:42:07.730Z,12.00
2017-10-23T13:44:35.235Z,12.00
2017-10-23T13:47:02.750Z,12.00
2017-10-23T13:49:30.245Z,12.00
2017-10-23T13:51:57.758Z,12.00
2017-10-23T13:54:26.011Z,12.00
2017-10-23T13:56:54.294Z,11.90
2017-10-23T13:59:21.778Z,11.90
2017-10-23T14:01:50.037Z,12.00
2017-10-23T14:04:18.317Z,12.00
2017-10-23T14:06:46.582Z,12.00
2017-10-23T14:09:14.095Z,11.90
2017-10-23T14:11:41.586Z,11.90
2017-10-23T14:14:09.098Z,11.90
2017-10-23T14:16:36.590Z,12.10
2017-10-23T14:19:04.102Z,12.40
2017-10-23T14:21:32.362Z,12.60
2017-10-23T14:24:00.626Z,12.60
2017-10-23T14:26:28.140Z,12.50
2017-10-23T14:28:55.634Z,12.60
2017-10-23T14:31:23.143Z,12.60
2017-10-23T14:33:50.634Z,12.60
2017-10-23T14:36:18.910Z,12.60
2017-10-23T14:38:46.402Z,12.50
2017-10-23T14:41:13.902Z,12.50
2017-10-23T14:43:41.418Z,12.50
2017-10-23T14:46:08.905Z,12.40
2017-10-23T14:48:37.186Z,12.40
2017-10-23T14:51:05.446Z,12.50
2017-10-23T14:53:32.962Z,12.40
2017-10-23T14:56:00.453Z,12.40
2017-10-23T14:58:27.966Z,12.40
2017-10-23T15:00:55.643Z,12.40
2017-10-23T15:03:23.921Z,12.40
2017-10-23T15:05:52.178Z,12.50
2017-10-23T15:08:19.674Z,12.40
2017-10-23T15:10:47.187Z,12.60
2017-10-23T15:13:14.677Z,12.70
2017-10-23T15:15:42.949Z,12.80
2017-10-23T15:18:10.441Z,12.80
2017-10-23T15:20:37.966Z,12.80
2017-10-23T15:23:06.975Z,12.70
2017-10-23T15:25:35.249Z,12.60
2017-10-23T15:28:03.509Z,12.40
2017-10-23T15:30:30.998Z,12.40
2017-10-23T15:32:59.277Z,12.30
2017-10-23T15:35:26.773Z,12.30
2017-10-23T15:37:54.286Z,12.20
2017-10-23T15:40:22.546Z,12.10
2017-10-23T15:42:50.828Z,12.00
2017-10-23T15:45:19.086Z,12.00
2017-10-23T15:47:46.574Z,12.00
2017-10-23T15:50:14.853Z,11.90
2017-10-23T15:52:42.350Z,11.90
2017-10-23T15:55:09.862Z,12.00
2017-10-23T15:57:37.357Z,11.90
2017-10-23T16:00:04.865Z,12.00
2017-10-23T16:02:33.113Z,12.00
2017-10-23T16:05:00.602Z,11.90
2017-10-23T16:07:28.879Z,11.90
2017-10-23T16:09:57.142Z,12.00
2017-10-23T16:12:24.654Z,11.90
2017-10-23T16:14:52.146Z,12.00
2017-10-23T16:17:19.657Z,12.00
2017-10-23T16:19:47.169Z,11.90
2017-10-23T16:22:14.681Z,11.90
2017-10-23T16:24:42.182Z,11.90
2017-10-23T16:27:09.674Z,11.80
2017-10-23T16:29:37.182Z,11.80
2017-10-23T16:32:04.706Z,11.80
2017-10-23T16:34:32.222Z,11.70
2017-10-23T16:36:59.714Z,11.70
2017-10-23T16:39:27.230Z,11.70
2017-10-23T16:41:54.717Z,11.70
2017-10-23T16:44:22.965Z,11.70
2017-10-23T16:46:50.481Z,11.70
2017-10-23T16:49:17.973Z,11.70
2017-10-23T16:51:45.492Z,11.60
2017-10-23T16:54:12.981Z,11.60
2017-10-23T16:56:41.257Z,11.50
2017-10-23T16:59:09.518Z,11.50
2017-10-23T17:01:37.802Z,11.50
2017-10-23T17:04:06.055Z,11.50
2017-10-23T17:06:33.545Z,11.50
2017-10-23T17:09:01.826Z,11.40
2017-10-23T17:11:29.318Z,11.40
2017-10-23T17:13:57.598Z,11.40
2017-10-23T17:16:25.858Z,11.40
2017-10-23T17:18:53.370Z,11.40
2017-10-23T17:21:20.862Z,11.40
2017-10-23T17:23:48.374Z,11.40
2017-10-23T17:26:15.862Z,11.40
2017-10-23T17:28:43.374Z,11.40
2017-10-23T17:31:10.862Z,11.30
2017-10-23T17:33:38.366Z,11.30
2017-10-23T17:36:06.650Z,11.30
2017-10-23T17:38:34.911Z,11.30
2017-10-23T17:41:02.434Z,11.20
2017-10-23T17:43:29.942Z,11.20
2017-10-23T17:45:58.222Z,11.20
2017-10-23T17:48:26.478Z,11.20
2017-10-23T17:50:54.745Z,11.20
2017-10-23T17:53:22.274Z,11.20
2017-10-23T17:55:49.763Z,11.20
2017-10-23T17:58:17.282Z,11.20
2017-10-23T18:00:45.550Z,11.20
2017-10-23T18:03:13.831Z,11.10
2017-10-23T18:05:42.090Z,11.20
2017-10-23T18:08:09.582Z,11.10
2017-10-23T18:10:37.094Z,11.20
2017-10-23T18:13:04.586Z,11.10
2017-10-23T18:15:32.867Z,11.20
2017-10-23T18:18:01.122Z,11.20
2017-10-23T18:20:29.408Z,11.20
2017-10-23T18:22:57.686Z,11.20
2017-10-23T18:25:25.975Z,11.20
2017-10-23T18:27:53.465Z,11.20
2017-10-23T18:30:20.959Z,11.20
2017-10-23T18:32:48.470Z,11.20
2017-10-23T18:35:15.961Z,11.20
2017-10-23T18:37:43.469Z,11.20
2017-10-23T18:40:10.963Z,11.20
2017-10-23T18:42:38.478Z,11.20
2017-10-23T18:45:06.740Z,11.10
2017-10-23T18:47:35.029Z,11.10
2017-10-23T18:50:02.534Z,11.10
2017-10-23T18:52:30.035Z,11.10
2017-10-23T18:54:58.323Z,11.10
2017-10-23T18:57:26.590Z,11.10
2017-10-23T18:59:54.874Z,11.10
2017-10-23T19:02:23.129Z,11.10
2017-10-23T19:04:50.645Z,11.00
2017-10-23T19:07:18.138Z,11.00
2017-10-23T19:09:45.696Z,11.00
2017-10-23T19:12:13.319Z,11.00
2017-10-23T19:14:40.835Z,11.00
2017-10-23T19:17:08.366Z,10.90
2017-10-23T19:19:35.875Z,10.90
2017-10-23T19:22:04.162Z,10.90
2017-10-23T19:24:32.585Z,10.80
2017-10-23T19:27:00.241Z,10.80
2017-10-23T19:29:27.754Z,10.90
2017-10-23T19:31:55.291Z,10.80
2017-10-23T19:34:22.778Z,10.80
2017-10-23T19:36:51.037Z,10.80
2017-10-23T19:39:18.573Z,10.80
2017-10-23T19:41:46.065Z,10.80
2017-10-23T19:44:14.362Z,10.70
2017-10-23T19:46:41.857Z,10.70
2017-10-23T19:49:09.371Z,10.70
2017-10-23T19:51:36.862Z,10.70
2017-10-23T19:54:04.410Z,10.70
2017-10-23T19:56:31.922Z,10.60
2017-10-23T19:59:00.202Z,10.50
2017-10-23T20:01:28.486Z,10.60
2017-10-23T20:03:56.791Z,10.50
2017-10-23T20:06:24.309Z,10.50
2017-10-23T20:08:51.811Z,10.50
2017-10-23T20:11:19.312Z,10.50
2017-10-23T20:13:46.834Z,10.50
2017-10-23T20:16:14.323Z,10.50
2017-10-23T20:18:41.842Z,10.50
2017-10-23T20:21:09.334Z,10.50
2017-10-23T20:23:36.849Z,10.40
2017-10-23T20:26:04.348Z,10.40
2017-10-23T20:28:31.843Z,10.30
2017-10-23T20:30:59.363Z,10.30
2017-10-23T20:33:26.854Z,10.30
2017-10-23T20:35:54.377Z,10.20
2017-10-23T20:38:21.871Z,10.20
2017-10-23T20:40:49.398Z,10.10
2017-10-23T20:43:16.886Z,10.10
2017-10-23T20:45:44.382Z,10.10
2017-10-23T20:48:11.911Z,10.10
2017-10-23T20:50:39.406Z,10.20
2017-10-23T20:53:06.918Z,10.20
2017-10-23T20:55:35.179Z,10.20
2017-10-23T20:58:02.708Z,10.20
2017-10-23T21:00:30.201Z,10.20
2017-10-23T21:02:58.458Z,10.20
2017-10-23T21:05:26.739Z,10.20
2017-10-23T21:07:54.242Z,10.20
2017-10-23T21:10:21.753Z,10.20
2017-10-23T21:12:49.246Z,10.20
2017-10-23T21:15:17.545Z,10.30
2017-10-23T21:17:45.037Z,10.20
2017-10-23T21:20:12.537Z,10.30
2017-10-23T21:22:40.057Z,10.30
2017-10-23T21:25:07.562Z,10.30
2017-10-23T21:27:35.078Z,10.30
2017-10-23T21:30:02.574Z,10.30
2017-10-23T21:32:30.091Z,10.30
2017-10-23T21:34:57.586Z,10.30
2017-10-23T21:37:25.087Z,10.20
2017-10-23T21:39:53.361Z,10.10
2017-10-23T21:42:21.622Z,10.10
2017-10-23T21:44:49.137Z,10.10
2017-10-23T21:47:17.562Z,10.10
2017-10-23T21:49:45.078Z,10.10
2017-10-23T21:52:12.570Z,10.10
2017-10-23T21:54:40.106Z,10.10
2017-10-23T21:57:07.602Z,10.20
2017-10-23T21:59:35.866Z,10.20
2017-10-23T22:02:04.886Z,10.20
2017-10-23T22:04:33.150Z,10.20
2017-10-23T22:07:01.429Z,10.20
2017-10-23T22:09:29.685Z,10.20
2017-10-23T22:11:57.200Z,10.20
2017-10-23T22:14:24.697Z,10.20
2017-10-23T22:16:52.194Z,10.20
2017-10-23T22:19:19.714Z,10.20
2017-10-23T22:21:47.206Z,10.20
2017-10-23T22:24:15.482Z,10.20
2017-10-23T22:26:43.738Z,10.20
2017-10-23T22:29:12.026Z,10.20
2017-10-23T22:31:40.285Z,10.20
2017-10-23T22:34:07.777Z,10.20
2017-10-23T22:36:35.290Z,10.20
2017-10-23T22:39:02.782Z,10.20
2017-10-23T22:41:31.061Z,10.20
2017-10-23T22:43:59.318Z,10.20
2017-10-23T22:46:27.607Z,10.20
2017-10-23T22:48:55.865Z,10.30
2017-10-23T22:51:23.358Z,10.30
2017-10-23T22:53:50.876Z,10.30
2017-10-23T22:56:18.365Z,10.30
2017-10-23T22:58:45.878Z,10.30
2017-10-23T23:01:13.370Z,10.40
2017-10-23T23:03:41.654Z,10.40
2017-10-23T23:06:09.910Z,10.40
2017-10-23T23:08:37.402Z,10.40
2017-10-23T23:11:04.917Z,10.40
2017-10-23T23:13:32.413Z,10.40
2017-10-23T23:15:59.926Z,10.40
2017-10-23T23:18:27.417Z,10.40
2017-10-23T23:20:55.694Z,10.40
2017-10-23T23:23:23.954Z,10.50
2017-10-23T23:25:52.210Z,10.50
2017-10-23T23:28:19.722Z,10.50
2017-10-23T23:30:47.230Z,10.50
2017-10-23T23:33:14.750Z,10.50
2017-10-23T23:35:42.248Z,10.60
2017-10-23T23:38:09.759Z,10.60
2017-10-23T23:40:37.258Z,10.50
2017-10-23T23:43:04.749Z,10.60
2017-10-23T23:45:33.035Z,10.60
2017-10-23T23:48:01.294Z,10.60
2017-10-23T23:50:29.570Z,10.60
2017-10-23T23:52:57.826Z,10.60
2017-10-23T23:55:25.342Z,10.50
2017-10-23T23:57:52.834Z,10.60
